createdAt,value
2018-09-09T00:02:16.440Z,11.00
2018-09-09T00:04:44.715Z,11.00
2018-09-09T00:07:13.453Z,10.90
2018-09-09T00:09:47.609Z,10.90
2018-09-09T00:12:16.801Z,10.90
2018-09-09T00:14:45.310Z,10.90
2018-09-09T00:17:13.639Z,10.80
2018-09-09T00:19:50.371Z,10.80
2018-09-09T00:22:18.666Z,10.70
2018-09-09T00:24:46.938Z,10.60
2018-09-09T00:27:15.336Z,10.60
2018-09-09T00:29:43.578Z,10.50
2018-09-09T00:32:11.899Z,10.40
2018-09-09T00:34:40.153Z,10.40
2018-09-09T00:37:08.465Z,10.30
2018-09-09T00:39:36.800Z,10.30
2018-09-09T00:42:05.175Z,10.30
2018-09-09T00:44:33.521Z,10.30
2018-09-09T00:47:01.804Z,10.20
2018-09-09T00:49:35.509Z,10.20
2018-09-09T00:52:09.168Z,10.10
2018-09-09T00:54:37.474Z,10.00
2018-09-09T00:57:05.903Z,10.00
2018-09-09T00:59:34.206Z,10.00
2018-09-09T01:02:02.615Z,9.90
2018-09-09T01:04:49.294Z,9.90
2018-09-09T01:07:17.613Z,9.80
2018-09-09T01:09:46.131Z,9.80
2018-09-09T01:12:15.004Z,9.70
2018-09-09T01:14:43.296Z,9.70
2018-09-09T01:17:11.711Z,9.60
2018-09-09T01:19:39.975Z,9.60
2018-09-09T01:22:08.302Z,9.60
2018-09-09T01:24:36.588Z,9.60
2018-09-09T01:27:04.897Z,9.60
2018-09-09T01:29:33.188Z,9.60
2018-09-09T01:32:01.721Z,9.60
2018-09-09T01:34:30.005Z,9.70
2018-09-09T01:36:58.266Z,9.60
2018-09-09T01:39:26.589Z,9.50
2018-09-09T01:41:54.968Z,9.50
2018-09-09T01:44:23.240Z,9.40
2018-09-09T01:46:51.701Z,9.30
2018-09-09T01:49:19.992Z,9.20
2018-09-09T01:51:48.281Z,9.20
2018-09-09T01:54:29.513Z,9.20
2018-09-09T01:56:57.957Z,9.20
2018-09-09T01:59:26.323Z,9.20
2018-09-09T02:01:54.682Z,9.20
2018-09-09T02:04:23.061Z,9.20
2018-09-09T02:06:51.408Z,9.10
2018-09-09T02:09:19.742Z,9.10
2018-09-09T02:11:48.185Z,9.20
2018-09-09T02:14:16.589Z,9.20
2018-09-09T02:16:44.883Z,9.20
2018-09-09T02:19:13.159Z,9.20
2018-09-09T02:21:41.558Z,9.20
2018-09-09T02:24:09.798Z,9.20
2018-09-09T02:26:38.123Z,9.10
2018-09-09T02:29:06.564Z,9.10
2018-09-09T02:31:35.021Z,9.10
2018-09-09T02:34:03.370Z,9.10
2018-09-09T02:36:31.839Z,9.10
2018-09-09T02:39:00.239Z,9.10
2018-09-09T02:41:28.573Z,9.00
2018-09-09T02:43:57.132Z,9.00
2018-09-09T02:46:25.470Z,9.00
2018-09-09T02:48:53.757Z,9.00
2018-09-09T02:51:22.161Z,9.00
2018-09-09T02:53:50.462Z,9.00
2018-09-09T02:56:18.856Z,9.00
2018-09-09T02:58:47.200Z,8.90
2018-09-09T03:01:15.641Z,8.90
2018-09-09T03:03:43.957Z,8.90
2018-09-09T03:06:12.897Z,8.90
2018-09-09T03:08:41.826Z,8.90
2018-09-09T03:11:13.255Z,8.80
2018-09-09T03:13:42.249Z,8.80
2018-09-09T03:16:10.736Z,8.80
2018-09-09T03:18:39.346Z,8.80
2018-09-09T03:21:07.564Z,8.70
2018-09-09T03:23:35.871Z,8.70
2018-09-09T03:26:04.187Z,8.70
2018-09-09T03:28:33.233Z,8.60
2018-09-09T03:31:02.803Z,8.60
2018-09-09T03:33:31.223Z,8.50
2018-09-09T03:35:59.733Z,8.50
2018-09-09T03:38:27.980Z,8.50
2018-09-09T03:40:56.394Z,8.50
2018-09-09T03:43:24.674Z,8.50
2018-09-09T03:45:53.038Z,8.60
2018-09-09T03:48:21.492Z,8.50
2018-09-09T03:50:49.717Z,8.50
2018-09-09T03:53:18.204Z,8.50
2018-09-09T03:55:46.670Z,8.40
2018-09-09T03:58:14.998Z,8.40
2018-09-09T04:00:43.274Z,8.30
2018-09-09T04:03:11.549Z,8.30
2018-09-09T04:05:39.966Z,8.30
2018-09-09T04:08:08.369Z,8.20
2018-09-09T04:10:36.670Z,8.10
2018-09-09T04:13:05.024Z,8.00
2018-09-09T04:15:33.283Z,8.00
2018-09-09T04:18:01.568Z,8.10
2018-09-09T04:20:29.805Z,8.10
2018-09-09T04:22:58.130Z,8.10
2018-09-09T04:25:26.498Z,8.10
2018-09-09T04:27:54.794Z,8.00
2018-09-09T04:30:23.134Z,8.00
2018-09-09T04:32:51.455Z,7.90
2018-09-09T04:35:20.091Z,7.90
2018-09-09T04:37:48.411Z,7.80
2018-09-09T04:40:16.745Z,7.80
2018-09-09T04:42:45.115Z,7.80
2018-09-09T04:45:13.333Z,7.80
2018-09-09T04:47:41.606Z,7.80
2018-09-09T04:50:10.027Z,7.80
2018-09-09T04:52:38.237Z,7.80
2018-09-09T04:55:06.577Z,7.80
2018-09-09T04:57:35.021Z,7.80
2018-09-09T05:00:03.295Z,7.90
2018-09-09T05:02:31.667Z,7.80
2018-09-09T05:05:00.044Z,7.80
2018-09-09T05:07:28.406Z,7.80
2018-09-09T05:09:56.725Z,7.80
2018-09-09T05:12:26.328Z,7.80
2018-09-09T05:14:54.896Z,7.70
2018-09-09T05:17:23.237Z,7.70
2018-09-09T05:19:52.592Z,7.70
2018-09-09T05:22:24.621Z,7.70
2018-09-09T05:25:05.267Z,7.70
2018-09-09T05:27:43.780Z,7.70
2018-09-09T05:30:13.184Z,7.70
2018-09-09T05:32:41.460Z,7.70
2018-09-09T05:35:09.732Z,7.80
2018-09-09T05:37:38.007Z,7.80
2018-09-09T05:40:14.190Z,7.90
2018-09-09T05:42:42.539Z,7.90
2018-09-09T05:45:10.946Z,8.00
2018-09-09T05:47:39.247Z,8.10
2018-09-09T05:50:07.598Z,8.20
2018-09-09T05:52:35.947Z,8.20
2018-09-09T05:55:04.633Z,8.20
2018-09-09T05:57:32.964Z,8.30
2018-09-09T06:00:01.257Z,8.30
2018-09-09T06:02:29.904Z,8.40
2018-09-09T06:04:58.276Z,8.50
2018-09-09T06:07:26.573Z,8.60
2018-09-09T06:09:54.890Z,8.80
2018-09-09T06:12:23.161Z,9.00
2018-09-09T06:14:51.503Z,9.30
2018-09-09T06:17:19.784Z,9.70
2018-09-09T06:19:48.092Z,10.00
2018-09-09T06:22:16.399Z,10.20
2018-09-09T06:24:44.821Z,10.20
2018-09-09T06:27:14.369Z,10.20
2018-09-09T06:29:42.625Z,10.50
2018-09-09T06:32:10.961Z,10.70
2018-09-09T06:34:39.290Z,10.90
2018-09-09T06:37:07.564Z,11.00
2018-09-09T06:39:35.888Z,11.30
2018-09-09T06:42:04.263Z,11.70
2018-09-09T06:44:32.571Z,12.00
2018-09-09T06:47:00.936Z,12.20
2018-09-09T06:49:29.359Z,12.30
2018-09-09T06:51:57.732Z,12.10
2018-09-09T06:54:26.247Z,12.20
2018-09-09T06:56:54.845Z,12.30
2018-09-09T06:59:23.216Z,12.50
2018-09-09T07:01:51.623Z,12.50
2018-09-09T07:04:19.940Z,12.40
2018-09-09T07:06:48.444Z,12.40
2018-09-09T07:09:16.740Z,12.50
2018-09-09T07:11:45.206Z,12.60
2018-09-09T07:14:13.432Z,12.90
2018-09-09T07:16:41.794Z,13.10
2018-09-09T07:19:10.340Z,13.40
2018-09-09T07:21:42.327Z,13.70
2018-09-09T07:24:10.834Z,14.00
2018-09-09T07:26:44.765Z,14.30
2018-09-09T07:29:17.623Z,14.80
2018-09-09T07:31:45.930Z,14.80
2018-09-09T07:34:14.338Z,14.80
2018-09-09T07:36:42.893Z,14.70
2018-09-09T07:39:11.225Z,14.80
2018-09-09T07:41:39.523Z,14.90
2018-09-09T07:44:08.007Z,15.30
2018-09-09T07:46:36.439Z,15.50
2018-09-09T07:49:05.091Z,15.70
2018-09-09T07:51:33.551Z,16.10
2018-09-09T07:54:01.877Z,16.70
2018-09-09T07:56:30.172Z,17.30
2018-09-09T07:58:58.565Z,17.60
2018-09-09T08:01:26.871Z,17.60
2018-09-09T08:03:55.491Z,16.90
2018-09-09T08:06:23.889Z,16.70
2018-09-09T08:08:52.305Z,16.50
2018-09-09T08:11:21.765Z,16.70
2018-09-09T08:13:50.395Z,16.70
2018-09-09T08:16:18.669Z,16.90
2018-09-09T08:18:46.925Z,17.30
2018-09-09T08:21:15.315Z,17.50
2018-09-09T08:23:43.682Z,17.40
2018-09-09T08:26:12.024Z,17.20
2018-09-09T08:28:40.604Z,17.10
2018-09-09T08:31:08.999Z,17.20
2018-09-09T08:33:37.459Z,17.10
2018-09-09T08:36:05.907Z,17.20
2018-09-09T08:38:34.261Z,17.20
2018-09-09T08:41:02.613Z,17.30
2018-09-09T08:43:30.877Z,17.40
2018-09-09T08:45:59.186Z,17.90
2018-09-09T08:48:27.516Z,18.30
2018-09-09T08:50:56.338Z,18.60
2018-09-09T08:53:24.665Z,18.90
2018-09-09T08:55:53.045Z,19.10
2018-09-09T08:58:21.275Z,19.10
2018-09-09T09:00:49.628Z,19.40
2018-09-09T09:03:18.069Z,19.60
2018-09-09T09:05:46.418Z,19.70
2018-09-09T09:08:14.876Z,19.70
2018-09-09T09:10:43.145Z,20.10
2018-09-09T09:13:11.962Z,20.20
2018-09-09T09:15:40.367Z,20.30
2018-09-09T09:18:08.763Z,20.50
2018-09-09T09:20:37.123Z,20.70
2018-09-09T09:23:05.485Z,20.80
2018-09-09T09:25:33.954Z,21.30
2018-09-09T09:28:02.403Z,21.90
2018-09-09T09:30:30.802Z,22.10
2018-09-09T09:32:59.182Z,21.30
2018-09-09T09:35:33.054Z,21.60
2018-09-09T09:38:01.698Z,21.40
2018-09-09T09:40:29.984Z,21.50
2018-09-09T09:42:58.469Z,21.50
2018-09-09T09:45:26.894Z,21.60
2018-09-09T09:48:05.876Z,21.80
2018-09-09T09:50:34.228Z,22.10
2018-09-09T09:53:16.625Z,22.30
2018-09-09T09:55:58.849Z,22.30
2018-09-09T09:58:27.567Z,22.30
2018-09-09T10:00:58.982Z,22.10
2018-09-09T10:03:31.048Z,22.60
2018-09-09T10:05:59.589Z,22.70
2018-09-09T10:08:33.300Z,22.70
2018-09-09T10:11:01.609Z,22.90
2018-09-09T10:13:31.185Z,23.00
2018-09-09T10:15:59.933Z,23.40
2018-09-09T10:18:31.965Z,24.00
2018-09-09T10:21:00.438Z,24.10
2018-09-09T10:23:30.001Z,24.20
2018-09-09T10:26:01.876Z,24.50
2018-09-09T10:28:30.510Z,24.80
2018-09-09T10:31:03.772Z,24.60
2018-09-09T10:33:33.636Z,24.40
2018-09-09T10:36:01.998Z,24.20
2018-09-09T10:38:30.363Z,24.00
2018-09-09T10:41:03.957Z,24.20
2018-09-09T10:43:32.754Z,24.10
2018-09-09T10:46:02.538Z,23.70
2018-09-09T10:48:30.846Z,23.80
2018-09-09T10:51:01.986Z,23.60
2018-09-09T10:53:31.268Z,23.40
2018-09-09T10:55:59.808Z,23.70
2018-09-09T10:58:34.741Z,23.80
2018-09-09T11:01:04.137Z,23.30
2018-09-09T11:03:32.833Z,23.70
2018-09-09T11:06:01.932Z,23.90
2018-09-09T11:08:30.196Z,24.10
2018-09-09T11:10:59.629Z,24.40
2018-09-09T11:13:28.289Z,24.10
2018-09-09T11:15:56.614Z,23.60
2018-09-09T11:18:25.125Z,23.80
2018-09-09T11:21:03.345Z,23.70
2018-09-09T11:23:31.657Z,23.70
2018-09-09T11:26:00.032Z,23.90
2018-09-09T11:28:28.421Z,23.80
2018-09-09T11:30:57.244Z,23.90
2018-09-09T11:33:43.234Z,23.80
2018-09-09T11:36:11.813Z,23.60
2018-09-09T11:38:40.742Z,23.50
2018-09-09T11:41:09.539Z,23.70
2018-09-09T11:43:37.817Z,23.90
2018-09-09T11:46:06.404Z,24.00
2018-09-09T11:48:34.865Z,23.90
2018-09-09T11:51:03.168Z,23.70
2018-09-09T11:53:31.443Z,23.80
2018-09-09T11:55:59.708Z,23.90
2018-09-09T11:58:28.073Z,23.70
2018-09-09T12:00:56.300Z,23.60
2018-09-09T12:03:24.820Z,23.50
2018-09-09T12:05:53.099Z,23.50
2018-09-09T12:08:21.349Z,23.50
2018-09-09T12:10:49.560Z,23.60
2018-09-09T12:13:17.868Z,23.70
2018-09-09T12:15:51.184Z,23.70
2018-09-09T12:18:19.504Z,23.80
2018-09-09T12:20:47.793Z,23.70
2018-09-09T12:23:20.897Z,23.70
2018-09-09T12:25:49.144Z,23.70
2018-09-09T12:28:17.426Z,24.00
2018-09-09T12:30:45.776Z,23.90
2018-09-09T12:33:14.098Z,24.10
2018-09-09T12:35:42.392Z,24.30
2018-09-09T12:38:11.346Z,24.60
2018-09-09T12:40:40.945Z,24.60
2018-09-09T12:43:26.822Z,24.60
2018-09-09T12:46:00.435Z,24.30
2018-09-09T12:48:34.066Z,24.20
2018-09-09T12:51:02.485Z,24.40
2018-09-09T12:53:31.734Z,24.60
2018-09-09T12:56:00.214Z,24.50
2018-09-09T12:58:29.192Z,24.20
2018-09-09T13:00:57.559Z,24.20
2018-09-09T13:03:26.058Z,24.20
2018-09-09T13:05:54.474Z,24.40
2018-09-09T13:08:22.768Z,24.60
2018-09-09T13:10:51.169Z,24.70
2018-09-09T13:13:21.517Z,24.70
2018-09-09T13:15:50.103Z,24.70
2018-09-09T13:18:18.490Z,24.70
2018-09-09T13:20:46.884Z,24.70
2018-09-09T13:23:15.464Z,24.60
2018-09-09T13:25:43.981Z,24.70
2018-09-09T13:28:13.329Z,24.70
2018-09-09T13:30:41.702Z,24.70
2018-09-09T13:33:10.472Z,24.60
2018-09-09T13:35:38.864Z,24.70
2018-09-09T13:38:07.346Z,24.60
2018-09-09T13:40:35.706Z,24.60
2018-09-09T13:43:04.100Z,24.60
2018-09-09T13:45:32.492Z,24.50
2018-09-09T13:48:00.831Z,24.70
2018-09-09T13:50:29.122Z,24.70
2018-09-09T13:52:57.456Z,24.70
2018-09-09T13:55:25.838Z,24.80
2018-09-09T13:57:54.298Z,24.80
2018-09-09T14:00:22.723Z,24.70
2018-09-09T14:02:51.195Z,24.70
2018-09-09T14:05:19.491Z,24.70
2018-09-09T14:07:47.823Z,24.70
2018-09-09T14:10:16.648Z,24.70
2018-09-09T14:12:45.033Z,24.80
2018-09-09T14:15:13.522Z,24.80
2018-09-09T14:17:41.957Z,25.00
2018-09-09T14:20:10.406Z,25.10
2018-09-09T14:22:38.881Z,25.00
2018-09-09T14:25:07.223Z,25.00
2018-09-09T14:27:35.625Z,25.00
2018-09-09T14:30:04.037Z,24.80
2018-09-09T14:32:32.347Z,24.90
2018-09-09T14:35:00.773Z,24.90
2018-09-09T14:37:29.248Z,24.80
2018-09-09T14:39:57.633Z,24.90
2018-09-09T14:42:27.043Z,25.00
2018-09-09T14:44:55.375Z,24.90
2018-09-09T14:47:23.815Z,25.00
2018-09-09T14:49:52.064Z,25.00
2018-09-09T14:52:20.297Z,24.90
2018-09-09T14:54:48.470Z,24.90
2018-09-09T14:57:16.799Z,24.90
2018-09-09T14:59:44.998Z,24.90
2018-09-09T15:02:13.311Z,25.00
2018-09-09T15:04:41.681Z,25.10
2018-09-09T15:07:09.863Z,25.00
2018-09-09T15:09:38.096Z,25.10
2018-09-09T15:12:06.309Z,25.10
2018-09-09T15:14:34.514Z,25.20
2018-09-09T15:17:02.679Z,25.20
2018-09-09T15:19:30.909Z,25.20
2018-09-09T15:21:59.099Z,25.10
2018-09-09T15:24:27.314Z,25.00
2018-09-09T15:26:55.634Z,25.00
2018-09-09T15:29:23.928Z,25.00
2018-09-09T15:31:52.417Z,25.00
2018-09-09T15:34:24.928Z,25.00
2018-09-09T15:36:53.183Z,25.10
2018-09-09T15:39:21.508Z,25.00
2018-09-09T15:41:49.882Z,25.00
2018-09-09T15:44:18.200Z,24.80
2018-09-09T15:46:46.472Z,24.80
2018-09-09T15:49:14.747Z,24.90
2018-09-09T15:51:43.008Z,24.90
2018-09-09T15:54:11.260Z,24.90
2018-09-09T15:56:39.514Z,25.00
2018-09-09T15:59:07.729Z,25.10
2018-09-09T16:01:35.989Z,25.10
2018-09-09T16:04:04.225Z,25.10
2018-09-09T16:06:32.583Z,25.10
2018-09-09T16:09:00.765Z,25.10
2018-09-09T16:11:28.967Z,25.10
2018-09-09T16:13:57.213Z,25.10
2018-09-09T16:16:25.493Z,25.20
2018-09-09T16:18:53.741Z,25.20
2018-09-09T16:21:21.939Z,25.20
2018-09-09T16:23:50.164Z,25.20
2018-09-09T16:26:18.391Z,25.20
2018-09-09T16:28:46.617Z,25.20
2018-09-09T16:31:14.898Z,25.10
2018-09-09T16:33:43.195Z,25.10
2018-09-09T16:36:11.413Z,25.20
2018-09-09T16:38:39.779Z,25.10
2018-09-09T16:41:08.377Z,25.00
2018-09-09T16:43:36.592Z,25.00
2018-09-09T16:46:04.833Z,25.00
2018-09-09T16:48:33.055Z,25.10
2018-09-09T16:51:01.300Z,25.40
2018-09-09T16:53:29.568Z,25.70
2018-09-09T16:55:57.963Z,25.90
2018-09-09T16:58:26.202Z,26.10
2018-09-09T17:00:54.430Z,26.40
2018-09-09T17:03:22.750Z,26.50
2018-09-09T17:05:51.091Z,26.90
2018-09-09T17:08:19.317Z,26.90
2018-09-09T17:10:47.595Z,26.80
2018-09-09T17:13:15.828Z,26.30
2018-09-09T17:15:44.038Z,25.80
2018-09-09T17:18:12.375Z,25.30
2018-09-09T17:20:40.663Z,24.80
2018-09-09T17:23:09.077Z,24.40
2018-09-09T17:25:37.402Z,24.10
2018-09-09T17:28:05.823Z,23.70
2018-09-09T17:30:34.549Z,23.30
2018-09-09T17:33:02.875Z,23.00
2018-09-09T17:35:31.125Z,22.60
2018-09-09T17:37:59.378Z,22.40
2018-09-09T17:40:27.649Z,22.10
2018-09-09T17:42:55.897Z,21.90
2018-09-09T17:45:24.153Z,21.70
2018-09-09T17:47:52.385Z,21.50
2018-09-09T17:50:20.636Z,21.30
2018-09-09T17:52:48.891Z,21.20
2018-09-09T17:55:17.192Z,21.00
2018-09-09T17:57:45.771Z,20.80
2018-09-09T18:00:14.278Z,20.60
2018-09-09T18:02:42.585Z,20.40
2018-09-09T18:05:10.835Z,20.10
2018-09-09T18:07:39.117Z,19.90
2018-09-09T18:10:08.477Z,19.70
2018-09-09T18:12:36.976Z,19.50
2018-09-09T18:15:05.816Z,19.30
2018-09-09T18:17:34.371Z,19.20
2018-09-09T18:20:02.735Z,19.10
2018-09-09T18:22:31.006Z,18.90
2018-09-09T18:24:59.403Z,18.80
2018-09-09T18:27:27.693Z,18.60
2018-09-09T18:29:56.063Z,18.50
2018-09-09T18:32:24.244Z,18.30
2018-09-09T18:34:52.620Z,18.30
2018-09-09T18:37:20.994Z,18.10
2018-09-09T18:39:49.310Z,18.00
2018-09-09T18:42:17.600Z,17.90
2018-09-09T18:44:45.932Z,17.80
2018-09-09T18:47:14.137Z,17.60
2018-09-09T18:49:42.419Z,17.40
2018-09-09T18:52:10.860Z,17.40
2018-09-09T18:54:39.170Z,17.20
2018-09-09T18:57:07.524Z,17.10
2018-09-09T18:59:35.811Z,17.00
2018-09-09T19:02:04.062Z,16.90
2018-09-09T19:04:32.345Z,16.80
2018-09-09T19:07:00.715Z,16.70
2018-09-09T19:09:28.988Z,16.70
2018-09-09T19:11:57.280Z,16.60
2018-09-09T19:14:25.555Z,16.60
2018-09-09T19:16:53.810Z,16.50
2018-09-09T19:19:22.094Z,16.30
2018-09-09T19:21:50.486Z,16.20
2018-09-09T19:24:18.728Z,16.10
2018-09-09T19:26:47.041Z,16.00
2018-09-09T19:29:15.309Z,15.90
2018-09-09T19:31:43.581Z,15.70
2018-09-09T19:34:11.850Z,15.70
2018-09-09T19:36:40.112Z,15.50
2018-09-09T19:39:09.744Z,15.50
2018-09-09T19:41:38.076Z,15.40
2018-09-09T19:44:06.554Z,15.30
2018-09-09T19:46:35.012Z,15.30
2018-09-09T19:49:03.876Z,15.20
2018-09-09T19:51:32.130Z,15.10
2018-09-09T19:54:00.409Z,15.10
2018-09-09T19:56:28.770Z,15.00
2018-09-09T19:58:57.046Z,14.90
2018-09-09T20:01:25.378Z,14.90
2018-09-09T20:03:53.743Z,14.80
2018-09-09T20:06:21.992Z,14.80
2018-09-09T20:08:50.260Z,14.70
2018-09-09T20:11:18.545Z,14.70
2018-09-09T20:13:46.834Z,14.70
2018-09-09T20:16:15.118Z,14.60
2018-09-09T20:18:43.363Z,14.50
2018-09-09T20:21:11.629Z,14.40
2018-09-09T20:23:39.921Z,14.30
2018-09-09T20:26:08.210Z,14.20
2018-09-09T20:28:36.515Z,14.00
2018-09-09T20:31:05.271Z,13.90
2018-09-09T20:33:33.519Z,13.90
2018-09-09T20:36:01.854Z,13.80
2018-09-09T20:38:30.157Z,13.80
2018-09-09T20:40:58.466Z,13.80
2018-09-09T20:43:26.770Z,13.70
2018-09-09T20:45:55.051Z,13.70
2018-09-09T20:48:23.324Z,13.60
2018-09-09T20:50:51.632Z,13.60
2018-09-09T20:53:19.902Z,13.50
2018-09-09T20:55:48.143Z,13.40
2018-09-09T20:58:16.402Z,13.40
2018-09-09T21:00:44.710Z,13.30
2018-09-09T21:03:12.952Z,13.20
2018-09-09T21:05:41.224Z,13.20
2018-09-09T21:08:09.518Z,13.20
2018-09-09T21:10:37.803Z,13.10
2018-09-09T21:13:06.045Z,13.00
2018-09-09T21:15:34.361Z,13.00
2018-09-09T21:18:02.648Z,12.90
2018-09-09T21:20:30.906Z,12.90
2018-09-09T21:22:59.139Z,12.80
2018-09-09T21:25:27.424Z,12.80
2018-09-09T21:27:55.718Z,12.80
2018-09-09T21:30:23.954Z,12.80
2018-09-09T21:32:52.247Z,12.70
2018-09-09T21:35:20.527Z,12.60
2018-09-09T21:37:48.757Z,12.60
2018-09-09T21:40:17.026Z,12.50
2018-09-09T21:42:46.301Z,12.50
2018-09-09T21:45:14.542Z,12.50
2018-09-09T21:47:42.808Z,12.40
2018-09-09T21:50:11.121Z,12.40
2018-09-09T21:52:39.425Z,12.40
2018-09-09T21:55:07.669Z,12.40
2018-09-09T21:57:35.949Z,12.30
2018-09-09T22:00:05.288Z,12.30
2018-09-09T22:02:33.549Z,12.20
2018-09-09T22:05:01.821Z,12.20
2018-09-09T22:07:31.114Z,12.10
2018-09-09T22:09:59.408Z,12.10
2018-09-09T22:12:27.662Z,12.00
2018-09-09T22:14:55.914Z,12.00
2018-09-09T22:17:24.217Z,11.90
2018-09-09T22:19:52.496Z,11.90
2018-09-09T22:22:20.788Z,11.90
2018-09-09T22:24:49.232Z,11.80
2018-09-09T22:27:17.584Z,11.80
2018-09-09T22:29:45.847Z,11.70
2018-09-09T22:32:14.114Z,11.70
2018-09-09T22:34:42.357Z,11.60
2018-09-09T22:37:10.653Z,11.50
2018-09-09T22:39:38.932Z,11.50
2018-09-09T22:42:07.204Z,11.50
2018-09-09T22:44:35.465Z,11.50
2018-09-09T22:47:03.737Z,11.50
2018-09-09T22:49:32.005Z,11.50
2018-09-09T22:52:00.226Z,11.50
2018-09-09T22:54:28.456Z,11.40
2018-09-09T22:56:56.783Z,11.40
2018-09-09T22:59:25.024Z,11.40
2018-09-09T23:01:53.296Z,11.30
2018-09-09T23:04:21.577Z,11.30
2018-09-09T23:06:49.859Z,11.20
2018-09-09T23:09:18.114Z,11.20
2018-09-09T23:11:46.362Z,11.10
2018-09-09T23:14:14.629Z,11.10
2018-09-09T23:16:42.877Z,11.10
2018-09-09T23:19:11.090Z,11.10
2018-09-09T23:21:39.364Z,11.10
2018-09-09T23:24:07.609Z,11.10
2018-09-09T23:26:35.842Z,11.20
2018-09-09T23:29:04.108Z,11.10
2018-09-09T23:31:32.367Z,11.10
2018-09-09T23:34:00.604Z,11.10
2018-09-09T23:36:28.855Z,11.00
2018-09-09T23:38:57.134Z,11.00
2018-09-09T23:41:25.413Z,10.90
2018-09-09T23:43:53.682Z,10.90
2018-09-09T23:46:21.932Z,10.80
2018-09-09T23:48:50.210Z,10.80
2018-09-09T23:51:18.459Z,10.80
2018-09-09T23:53:46.701Z,10.70
2018-09-09T23:56:15.876Z,10.70
2018-09-09T23:58:44.106Z,10.70
